createdAt,value
2022-10-14T00:00:53.618Z,10.16
2022-10-14T00:01:54.562Z,10.15
2022-10-14T00:02:54.328Z,10.16
2022-10-14T00:03:54.357Z,10.13
2022-10-14T00:04:54.311Z,10.13
2022-10-14T00:05:53.609Z,10.13
2022-10-14T00:06:54.946Z,10.15
2022-10-14T00:07:54.176Z,10.16
2022-10-14T00:08:54.366Z,10.18
2022-10-14T00:09:53.516Z,10.19
2022-10-14T00:10:55.098Z,10.22
2022-10-14T00:11:54.169Z,10.30
2022-10-14T00:12:54.536Z,10.35
2022-10-14T00:13:53.448Z,10.41
2022-10-14T00:14:54.927Z,10.45
2022-10-14T00:15:54.247Z,10.49
2022-10-14T00:16:53.416Z,10.52
2022-10-14T00:17:54.138Z,10.53
2022-10-14T00:18:53.396Z,10.56
2022-10-14T00:19:54.857Z,10.57
2022-10-14T00:20:55.119Z,10.59
2022-10-14T00:21:53.373Z,10.60
2022-10-14T00:22:54.007Z,10.60
2022-10-14T00:23:53.347Z,10.64
2022-10-14T00:24:54.887Z,10.67
2022-10-14T00:25:54.266Z,10.71
2022-10-14T00:26:54.038Z,10.74
2022-10-14T00:27:53.306Z,10.77
2022-10-14T00:28:54.860Z,10.82
2022-10-14T00:29:54.137Z,10.86
2022-10-14T00:30:54.059Z,10.85
2022-10-14T00:31:53.317Z,10.83
2022-10-14T00:32:53.977Z,10.87
2022-10-14T00:33:53.266Z,10.89
2022-10-14T00:34:55.147Z,10.96
2022-10-14T00:35:53.840Z,10.95
2022-10-14T00:36:54.076Z,10.89
2022-10-14T00:37:53.207Z,10.86
2022-10-14T00:38:54.076Z,10.75
2022-10-14T00:39:56.939Z,10.70
2022-10-14T00:40:53.960Z,10.64
2022-10-14T00:41:53.919Z,10.74
2022-10-14T00:42:53.147Z,10.79
2022-10-14T00:43:53.829Z,10.78
2022-10-14T00:44:53.129Z,10.89
2022-10-14T00:45:53.947Z,10.82
2022-10-14T00:46:53.948Z,10.77
2022-10-14T00:47:53.897Z,10.71
2022-10-14T00:48:53.906Z,10.72
2022-10-14T00:49:53.098Z,10.70
2022-10-14T00:50:54.397Z,10.71
2022-10-14T00:51:53.856Z,10.74
2022-10-14T00:52:53.758Z,10.86
2022-10-14T00:53:53.849Z,10.90
2022-10-14T00:54:53.016Z,10.90
2022-10-14T00:55:53.857Z,10.92
2022-10-14T00:56:53.729Z,10.90
2022-10-14T00:57:53.837Z,11.00
2022-10-14T00:58:53.737Z,11.07
2022-10-14T00:59:52.966Z,11.05
2022-10-14T01:00:54.433Z,11.01
2022-10-14T01:01:53.757Z,10.90
2022-10-14T01:02:52.976Z,10.90
2022-10-14T01:03:53.937Z,10.89
2022-10-14T01:04:52.906Z,10.90
2022-10-14T01:05:53.527Z,10.95
2022-10-14T01:06:53.696Z,10.97
2022-10-14T01:07:53.586Z,11.05
2022-10-14T01:08:53.666Z,11.05
2022-10-14T01:09:52.878Z,11.10
2022-10-14T01:10:54.789Z,11.14
2022-10-14T01:12:09.793Z,11.12
2022-10-14T01:12:52.847Z,11.15
2022-10-14T01:13:54.387Z,11.22
2022-10-14T01:14:53.046Z,11.26
2022-10-14T01:15:53.567Z,11.28
2022-10-14T01:16:53.577Z,11.23
2022-10-14T01:17:52.777Z,11.19
2022-10-14T01:18:53.647Z,11.10
2022-10-14T01:19:52.757Z,11.10
2022-10-14T01:20:53.349Z,11.08
2022-10-14T01:21:52.736Z,11.12
2022-10-14T01:22:53.367Z,11.15
2022-10-14T01:23:53.596Z,11.23
2022-10-14T01:24:53.397Z,11.28
2022-10-14T01:25:53.537Z,11.28
2022-10-14T01:26:53.377Z,11.33
2022-10-14T01:27:53.496Z,11.38
2022-10-14T01:28:52.800Z,11.37
2022-10-14T01:29:53.546Z,11.43
2022-10-14T01:30:53.396Z,11.41
2022-10-14T01:31:52.638Z,11.43
2022-10-14T01:32:53.351Z,11.48
2022-10-14T01:33:53.388Z,11.48
2022-10-14T01:34:53.438Z,11.50
2022-10-14T01:35:52.606Z,11.53
2022-10-14T01:36:54.007Z,11.51
2022-10-14T01:37:53.322Z,11.53
2022-10-14T01:38:53.377Z,11.54
2022-10-14T01:39:53.268Z,11.53
2022-10-14T01:40:53.378Z,11.50
2022-10-14T01:41:53.308Z,11.51
2022-10-14T01:42:53.396Z,11.56
2022-10-14T01:43:53.238Z,11.56
2022-10-14T01:44:52.578Z,11.59
2022-10-14T01:45:53.357Z,11.56
2022-10-14T01:46:53.257Z,11.56
2022-10-14T01:47:53.327Z,11.56
2022-10-14T01:48:53.317Z,11.51
2022-10-14T01:49:53.217Z,11.47
2022-10-14T01:50:53.107Z,11.48
2022-10-14T01:51:52.456Z,11.48
2022-10-14T01:52:54.008Z,11.50
2022-10-14T01:53:53.258Z,11.47
2022-10-14T01:54:53.077Z,11.53
2022-10-14T01:55:53.256Z,11.56
2022-10-14T01:56:53.016Z,11.50
2022-10-14T01:57:53.157Z,11.51
2022-10-14T01:58:53.129Z,11.50
2022-10-14T01:59:53.277Z,11.50
2022-10-14T02:00:53.296Z,11.50
2022-10-14T02:01:52.426Z,11.53
2022-10-14T02:02:53.137Z,11.48
2022-10-14T02:03:53.108Z,11.50
2022-10-14T02:04:53.067Z,11.51
2022-10-14T02:05:52.938Z,11.51
2022-10-14T02:06:53.219Z,11.50
2022-10-14T02:07:52.958Z,11.53
2022-10-14T02:08:53.096Z,11.54
2022-10-14T02:09:52.908Z,11.54
2022-10-14T02:10:53.008Z,11.53
2022-10-14T02:11:52.260Z,11.53
2022-10-14T02:12:53.431Z,11.51
2022-10-14T02:13:52.376Z,11.56
2022-10-14T02:14:53.008Z,11.58
2022-10-14T02:15:52.977Z,11.61
2022-10-14T02:16:53.057Z,11.62
2022-10-14T02:17:52.908Z,11.71
2022-10-14T02:18:52.128Z,11.74
2022-10-14T02:19:52.916Z,11.81
2022-10-14T02:20:52.118Z,11.84
2022-10-14T02:21:53.569Z,11.83
2022-10-14T02:22:52.709Z,11.74
2022-10-14T02:23:52.117Z,11.81
2022-10-14T02:24:52.697Z,11.84
2022-10-14T02:25:52.081Z,11.69
2022-10-14T02:26:52.769Z,11.53
2022-10-14T02:27:52.880Z,11.46
2022-10-14T02:28:52.787Z,11.50
2022-10-14T02:29:52.829Z,11.54
2022-10-14T02:30:52.739Z,11.59
2022-10-14T02:31:52.058Z,11.56
2022-10-14T02:32:52.727Z,11.58
2022-10-14T02:33:51.987Z,11.62
2022-10-14T02:34:53.367Z,11.65
2022-10-14T02:35:52.567Z,11.66
2022-10-14T02:36:51.957Z,11.71
2022-10-14T02:37:53.277Z,11.72
2022-10-14T02:38:52.736Z,11.69
2022-10-14T02:39:52.587Z,11.61
2022-10-14T02:40:51.957Z,11.62
2022-10-14T02:41:53.437Z,11.61
2022-10-14T02:42:52.778Z,11.61
2022-10-14T02:43:52.587Z,11.62
2022-10-14T02:44:52.718Z,11.66
2022-10-14T02:45:52.696Z,11.66
2022-10-14T02:46:51.837Z,11.68
2022-10-14T02:47:53.657Z,11.61
2022-10-14T02:48:52.696Z,11.50
2022-10-14T02:49:52.596Z,11.37
2022-10-14T02:50:52.416Z,11.43
2022-10-14T02:51:52.548Z,11.47
2022-10-14T02:52:52.716Z,11.43
2022-10-14T02:53:52.666Z,11.40
2022-10-14T02:54:52.777Z,11.41
2022-10-14T02:55:52.568Z,11.38
2022-10-14T02:56:52.528Z,11.41
2022-10-14T02:57:52.516Z,11.43
2022-10-14T02:58:52.476Z,11.47
2022-10-14T02:59:52.505Z,11.54
2022-10-14T03:00:51.687Z,11.65
2022-10-14T03:01:52.673Z,11.74
2022-10-14T03:02:51.676Z,11.77
2022-10-14T03:03:52.578Z,11.86
2022-10-14T03:04:52.417Z,11.90
2022-10-14T03:05:52.267Z,11.88
2022-10-14T03:06:52.447Z,11.88
2022-10-14T03:07:52.257Z,11.90
2022-10-14T03:08:52.486Z,12.02
2022-10-14T03:09:52.283Z,12.05
2022-10-14T03:10:52.388Z,12.00
2022-10-14T03:11:52.201Z,11.87
2022-10-14T03:12:52.429Z,11.84
2022-10-14T03:13:52.309Z,11.86
2022-10-14T03:14:52.357Z,11.91
2022-10-14T03:15:52.267Z,11.90
2022-10-14T03:16:52.366Z,11.95
2022-10-14T03:17:52.268Z,11.97
2022-10-14T03:18:52.335Z,11.84
2022-10-14T03:19:52.357Z,11.80
2022-10-14T03:20:52.096Z,11.72
2022-10-14T03:21:52.236Z,11.81
2022-10-14T03:22:52.070Z,11.86
2022-10-14T03:23:52.307Z,11.81
2022-10-14T03:24:52.167Z,11.72
2022-10-14T03:25:52.408Z,11.68
2022-10-14T03:26:52.067Z,11.74
2022-10-14T03:27:52.207Z,11.66
2022-10-14T03:28:52.142Z,11.63
2022-10-14T03:29:52.307Z,11.74
2022-10-14T03:30:52.106Z,11.76
2022-10-14T03:31:52.396Z,11.76
2022-10-14T03:32:51.347Z,11.79
2022-10-14T03:33:52.240Z,11.84
2022-10-14T03:34:52.090Z,11.74
2022-10-14T03:35:52.030Z,11.66
2022-10-14T03:36:52.094Z,11.72
2022-10-14T03:37:51.928Z,11.83
2022-10-14T03:38:52.096Z,11.90
2022-10-14T03:39:51.936Z,11.99
2022-10-14T03:40:52.130Z,12.05
2022-10-14T03:41:52.017Z,12.05
2022-10-14T03:42:52.027Z,11.88
2022-10-14T03:43:51.906Z,11.80
2022-10-14T03:44:52.016Z,11.83
2022-10-14T03:45:52.000Z,11.90
2022-10-14T03:46:51.228Z,11.91
2022-10-14T03:47:52.088Z,11.97
2022-10-14T03:48:51.957Z,11.97
2022-10-14T03:49:51.917Z,12.02
2022-10-14T03:50:51.996Z,12.05
2022-10-14T03:51:51.996Z,12.07
2022-10-14T03:52:55.389Z,12.10
2022-10-14T03:53:52.168Z,12.13
2022-10-14T03:54:51.956Z,12.09
2022-10-14T03:55:51.917Z,11.95
2022-10-14T03:56:51.837Z,11.86
2022-10-14T03:57:51.905Z,11.84
2022-10-14T03:58:51.769Z,11.76
2022-10-14T03:59:51.900Z,11.74
2022-10-14T04:00:51.776Z,11.81
2022-10-14T04:01:52.004Z,11.84
2022-10-14T04:02:51.807Z,11.80
2022-10-14T04:03:51.047Z,11.74
2022-10-14T04:04:51.777Z,11.84
2022-10-14T04:05:51.847Z,11.91
2022-10-14T04:06:51.777Z,12.00
2022-10-14T04:07:51.657Z,12.09
2022-10-14T04:08:51.837Z,12.09
2022-10-14T04:09:50.977Z,12.09
2022-10-14T04:10:51.776Z,12.02
2022-10-14T04:11:51.586Z,11.88
2022-10-14T04:12:50.997Z,11.91
2022-10-14T04:13:51.648Z,11.99
2022-10-14T04:14:51.790Z,11.91
2022-10-14T04:15:51.618Z,11.91
2022-10-14T04:16:51.729Z,11.99
2022-10-14T04:17:51.717Z,12.05
2022-10-14T04:18:51.697Z,12.00
2022-10-14T04:19:51.688Z,11.91
2022-10-14T04:20:51.668Z,11.99
2022-10-14T04:21:51.636Z,12.00
2022-10-14T04:22:51.482Z,12.06
2022-10-14T04:23:50.818Z,12.10
2022-10-14T04:24:51.418Z,12.17
2022-10-14T04:25:51.658Z,12.21
2022-10-14T04:26:51.458Z,12.27
2022-10-14T04:27:51.597Z,12.32
2022-10-14T04:28:51.544Z,12.30
2022-10-14T04:29:51.508Z,12.36
2022-10-14T04:30:51.429Z,12.32
2022-10-14T04:31:50.753Z,12.21
2022-10-14T04:32:51.968Z,12.20
2022-10-14T04:33:51.597Z,12.18
2022-10-14T04:34:51.447Z,12.15
2022-10-14T04:35:51.727Z,12.15
2022-10-14T04:36:51.496Z,12.15
2022-10-14T04:37:50.656Z,12.17
2022-10-14T04:38:51.857Z,12.18
2022-10-14T04:39:51.317Z,12.18
2022-10-14T04:40:51.448Z,12.15
2022-10-14T04:41:50.656Z,12.15
2022-10-14T04:42:52.491Z,12.13
2022-10-14T04:43:51.256Z,12.06
2022-10-14T04:44:50.650Z,12.00
2022-10-14T04:45:51.764Z,11.88
2022-10-14T04:46:51.777Z,11.81
2022-10-14T04:47:51.297Z,11.83
2022-10-14T04:48:51.376Z,11.79
2022-10-14T04:49:51.309Z,11.84
2022-10-14T04:50:50.580Z,11.88
2022-10-14T04:51:51.288Z,11.97
2022-10-14T04:52:51.160Z,12.06
2022-10-14T04:53:50.497Z,12.09
2022-10-14T04:54:52.167Z,12.13
2022-10-14T04:55:51.285Z,12.17
2022-10-14T04:56:50.518Z,12.20
2022-10-14T04:57:51.249Z,12.22
2022-10-14T04:58:51.188Z,12.21
2022-10-14T04:59:51.387Z,12.17
2022-10-14T05:00:51.117Z,12.24
2022-10-14T05:01:51.348Z,12.17
2022-10-14T05:02:51.162Z,12.06
2022-10-14T05:03:50.378Z,11.81
2022-10-14T05:04:51.136Z,11.76
2022-10-14T05:05:51.407Z,11.71
2022-10-14T05:06:51.067Z,11.72
2022-10-14T05:07:50.406Z,11.77
2022-10-14T05:08:52.307Z,11.74
2022-10-14T05:09:55.445Z,11.79
2022-10-14T05:10:51.158Z,11.79
2022-10-14T05:11:50.958Z,11.83
2022-10-14T05:12:51.276Z,11.84
2022-10-14T05:13:51.289Z,11.83
2022-10-14T05:14:51.077Z,11.86
2022-10-14T05:15:51.072Z,11.83
2022-10-14T05:16:51.117Z,11.81
2022-10-14T05:17:50.956Z,11.83
2022-10-14T05:18:51.296Z,11.80
2022-10-14T05:19:50.956Z,11.90
2022-10-14T05:20:51.108Z,11.88
2022-10-14T05:21:50.218Z,11.84
2022-10-14T05:22:50.899Z,11.90
2022-10-14T05:23:51.076Z,11.99
2022-10-14T05:24:50.198Z,11.99
2022-10-14T05:25:50.997Z,11.91
2022-10-14T05:26:50.247Z,11.84
2022-10-14T05:27:51.507Z,11.84
2022-10-14T05:28:50.323Z,11.83
2022-10-14T05:29:51.117Z,11.79
2022-10-14T05:30:51.498Z,11.80
2022-10-14T05:31:50.927Z,11.74
2022-10-14T05:32:50.865Z,11.74
2022-10-14T05:33:50.896Z,11.72
2022-10-14T05:34:50.919Z,11.76
2022-10-14T05:35:59.120Z,11.77
2022-10-14T05:36:50.822Z,11.83
2022-10-14T05:37:50.646Z,11.88
2022-10-14T05:38:50.838Z,11.99
2022-10-14T05:39:50.777Z,12.02
2022-10-14T05:40:50.868Z,12.07
2022-10-14T05:41:50.617Z,12.03
2022-10-14T05:42:50.806Z,11.86
2022-10-14T05:43:50.776Z,11.88
2022-10-14T05:44:50.815Z,11.84
2022-10-14T05:45:50.686Z,11.83
2022-10-14T05:46:50.717Z,11.84
2022-10-14T05:47:50.667Z,11.88
2022-10-14T05:48:50.768Z,11.96
2022-10-14T05:49:50.846Z,12.00
2022-10-14T05:50:51.099Z,12.02
2022-10-14T05:51:50.741Z,11.96
2022-10-14T05:52:50.478Z,11.95
2022-10-14T05:53:51.037Z,11.90
2022-10-14T05:54:50.516Z,11.88
2022-10-14T05:55:50.968Z,11.95
2022-10-14T05:56:50.428Z,11.99
2022-10-14T05:57:50.617Z,12.02
2022-10-14T05:58:50.457Z,11.95
2022-10-14T05:59:50.718Z,11.76
2022-10-14T06:00:50.528Z,11.62
2022-10-14T06:01:50.556Z,11.59
2022-10-14T06:02:50.597Z,11.59
2022-10-14T06:03:50.615Z,11.58
2022-10-14T06:04:50.469Z,11.53
2022-10-14T06:05:50.567Z,11.58
2022-10-14T06:06:50.506Z,11.59
2022-10-14T06:07:50.385Z,11.65
2022-10-14T06:08:50.505Z,11.65
2022-10-14T06:09:50.346Z,11.69
2022-10-14T06:10:50.569Z,11.79
2022-10-14T06:11:50.397Z,11.71
2022-10-14T06:12:50.467Z,11.69
2022-10-14T06:13:50.376Z,11.66
2022-10-14T06:14:50.437Z,11.69
2022-10-14T06:15:50.349Z,11.79
2022-10-14T06:16:50.489Z,11.81
2022-10-14T06:17:50.497Z,11.69
2022-10-14T06:18:54.217Z,11.71
2022-10-14T06:19:50.317Z,11.59
2022-10-14T06:20:50.368Z,11.58
2022-10-14T06:21:50.397Z,11.58
2022-10-14T06:22:50.247Z,11.59
2022-10-14T06:23:50.418Z,11.61
2022-10-14T06:24:50.165Z,11.50
2022-10-14T06:25:50.558Z,11.40
2022-10-14T06:26:50.458Z,11.32
2022-10-14T06:27:50.287Z,11.25
2022-10-14T06:28:50.266Z,11.23
2022-10-14T06:29:50.340Z,11.32
2022-10-14T06:30:50.147Z,11.38
2022-10-14T06:31:50.296Z,11.38
2022-10-14T06:32:50.249Z,11.46
2022-10-14T06:33:50.307Z,11.44
2022-10-14T06:34:50.538Z,11.50
2022-10-14T06:35:50.217Z,11.48
2022-10-14T06:36:50.218Z,11.58
2022-10-14T06:37:50.106Z,11.58
2022-10-14T06:38:50.177Z,11.58
2022-10-14T06:39:50.298Z,11.63
2022-10-14T06:40:50.186Z,11.62
2022-10-14T06:41:50.155Z,11.62
2022-10-14T06:42:50.237Z,11.56
2022-10-14T06:43:50.086Z,11.56
2022-10-14T06:44:50.107Z,11.59
2022-10-14T06:45:50.158Z,11.59
2022-10-14T06:46:50.096Z,11.58
2022-10-14T06:47:50.021Z,11.53
2022-10-14T06:48:50.566Z,11.48
2022-10-14T06:49:50.063Z,11.50
2022-10-14T06:50:50.100Z,11.50
2022-10-14T06:51:50.035Z,11.46
2022-10-14T06:52:49.919Z,11.47
2022-10-14T06:53:50.117Z,11.50
2022-10-14T06:54:49.799Z,11.56
2022-10-14T06:55:50.019Z,11.48
2022-10-14T06:56:49.806Z,11.46
2022-10-14T06:57:50.087Z,11.43
2022-10-14T06:58:49.999Z,11.47
2022-10-14T06:59:49.939Z,11.48
2022-10-14T07:00:50.072Z,11.46
2022-10-14T07:01:50.047Z,11.44
2022-10-14T07:02:49.979Z,11.48
2022-10-14T07:03:52.893Z,11.44
2022-10-14T07:04:50.006Z,11.48
2022-10-14T07:05:49.877Z,11.48
2022-10-14T07:06:49.906Z,11.59
2022-10-14T07:07:49.771Z,11.51
2022-10-14T07:08:50.006Z,11.53
2022-10-14T07:09:49.667Z,11.54
2022-10-14T07:10:49.846Z,11.53
2022-10-14T07:11:49.706Z,11.59
2022-10-14T07:12:49.817Z,11.65
2022-10-14T07:13:49.914Z,11.71
2022-10-14T07:14:49.836Z,11.69
2022-10-14T07:15:49.677Z,11.77
2022-10-14T07:16:49.767Z,11.71
2022-10-14T07:17:49.667Z,11.72
2022-10-14T07:18:49.787Z,11.68
2022-10-14T07:19:49.776Z,11.76
2022-10-14T07:20:49.775Z,11.65
2022-10-14T07:21:49.686Z,11.58
2022-10-14T07:22:49.567Z,11.51
2022-10-14T07:23:49.741Z,11.61
2022-10-14T07:24:49.646Z,11.66
2022-10-14T07:25:49.677Z,11.71
2022-10-14T07:26:49.704Z,11.79
2022-10-14T07:27:49.708Z,11.80
2022-10-14T07:28:49.739Z,11.68
2022-10-14T07:29:49.727Z,11.66
2022-10-14T07:30:49.516Z,11.69
2022-10-14T07:31:49.617Z,11.62
2022-10-14T07:32:49.625Z,11.59
2022-10-14T07:33:49.616Z,11.63
2022-10-14T07:34:49.566Z,11.63
2022-10-14T07:35:49.569Z,11.68
2022-10-14T07:36:49.467Z,11.66
2022-10-14T07:37:49.357Z,11.71
2022-10-14T07:38:49.533Z,11.66
2022-10-14T07:39:49.399Z,11.74
2022-10-14T07:40:49.637Z,11.74
2022-10-14T07:41:49.336Z,11.77
2022-10-14T07:42:49.529Z,11.81
2022-10-14T07:43:49.526Z,11.87
2022-10-14T07:44:49.577Z,11.96
2022-10-14T07:45:49.456Z,11.99
2022-10-14T07:46:49.566Z,12.02
2022-10-14T07:47:49.357Z,12.05
2022-10-14T07:48:57.243Z,11.97
2022-10-14T07:49:51.398Z,11.95
2022-10-14T07:50:49.476Z,11.97
2022-10-14T07:51:49.438Z,11.99
2022-10-14T07:52:49.127Z,12.00
2022-10-14T07:53:49.377Z,12.05
2022-10-14T07:54:49.239Z,12.06
2022-10-14T07:55:49.386Z,12.10
2022-10-14T07:56:49.176Z,12.17
2022-10-14T07:57:49.410Z,12.25
2022-10-14T07:58:49.326Z,12.18
2022-10-14T07:59:49.376Z,12.24
2022-10-14T08:00:49.177Z,12.21
2022-10-14T08:01:49.514Z,12.21
2022-10-14T08:02:49.197Z,12.30
2022-10-14T08:03:49.276Z,12.24
2022-10-14T08:04:49.297Z,12.18
2022-10-14T08:05:49.318Z,12.17
2022-10-14T08:06:49.306Z,12.15
2022-10-14T08:07:49.047Z,12.33
2022-10-14T08:08:49.465Z,12.45
2022-10-14T08:09:49.087Z,12.54
2022-10-14T08:10:49.397Z,12.63
2022-10-14T08:11:49.046Z,12.73
2022-10-14T08:12:49.188Z,12.68
2022-10-14T08:13:49.017Z,12.64
2022-10-14T08:14:49.249Z,12.75
2022-10-14T08:15:49.287Z,12.82
2022-10-14T08:16:49.197Z,12.85
2022-10-14T08:17:49.047Z,12.91
2022-10-14T08:18:49.437Z,12.96
2022-10-14T08:19:49.057Z,13.05
2022-10-14T08:20:49.163Z,13.08
2022-10-14T08:21:49.138Z,13.13
2022-10-14T08:22:48.878Z,13.09
2022-10-14T08:23:49.046Z,13.21
2022-10-14T08:24:48.927Z,13.21
2022-10-14T08:25:49.025Z,13.26
2022-10-14T08:26:49.099Z,13.24
2022-10-14T08:27:49.117Z,13.38
2022-10-14T08:28:48.904Z,13.49
2022-10-14T08:29:48.996Z,13.57
2022-10-14T08:30:48.917Z,13.57
2022-10-14T08:31:49.027Z,13.78
2022-10-14T08:32:48.997Z,13.88
2022-10-14T08:33:48.988Z,13.85
2022-10-14T08:34:48.887Z,14.05
2022-10-14T08:35:53.093Z,14.28
2022-10-14T08:36:48.954Z,14.41
2022-10-14T08:37:48.699Z,14.56
2022-10-14T08:38:48.906Z,14.82
2022-10-14T08:39:48.807Z,14.74
2022-10-14T08:40:53.373Z,14.66
2022-10-14T08:41:48.739Z,14.65
2022-10-14T08:42:48.908Z,14.66
2022-10-14T08:43:48.728Z,14.88
2022-10-14T08:44:48.985Z,15.04
2022-10-14T08:45:48.705Z,15.09
2022-10-14T08:46:51.971Z,14.91
2022-10-14T08:47:48.852Z,14.79
2022-10-14T08:48:48.797Z,14.53
2022-10-14T08:49:48.687Z,14.58
2022-10-14T08:50:47.988Z,14.79
2022-10-14T08:51:48.707Z,14.82
2022-10-14T08:52:48.638Z,14.84
2022-10-14T08:53:48.738Z,14.87
2022-10-14T08:54:48.503Z,14.91
2022-10-14T08:55:48.781Z,14.79
2022-10-14T08:56:48.539Z,14.74
2022-10-14T08:57:48.746Z,14.68
2022-10-14T08:58:48.688Z,14.59
2022-10-14T08:59:48.737Z,14.70
2022-10-14T09:00:48.748Z,14.82
2022-10-14T09:01:47.886Z,14.85
2022-10-14T09:02:48.621Z,14.88
2022-10-14T09:03:48.659Z,14.69
2022-10-14T09:04:48.547Z,14.65
2022-10-14T09:05:48.657Z,14.58
2022-10-14T09:06:48.548Z,14.63
2022-10-14T09:07:48.495Z,14.33
2022-10-14T09:08:48.650Z,14.08
2022-10-14T09:09:48.387Z,14.22
2022-10-14T09:10:48.546Z,14.28
2022-10-14T09:11:48.396Z,14.43
2022-10-14T09:12:48.618Z,14.55
2022-10-14T09:13:48.526Z,14.65
2022-10-14T09:14:48.688Z,14.69
2022-10-14T09:15:48.477Z,14.65
2022-10-14T09:16:51.778Z,14.66
2022-10-14T09:17:48.528Z,14.62
2022-10-14T09:18:50.960Z,14.65
2022-10-14T09:19:48.436Z,14.84
2022-10-14T09:20:47.646Z,14.85
2022-10-14T09:21:52.633Z,14.89
2022-10-14T09:22:48.426Z,14.99
2022-10-14T09:23:48.377Z,14.89
2022-10-14T09:24:48.238Z,14.89
2022-10-14T09:25:49.056Z,15.06
2022-10-14T09:26:48.287Z,15.24
2022-10-14T09:27:48.441Z,15.51
2022-10-14T09:28:48.285Z,15.72
2022-10-14T09:29:48.407Z,15.98
2022-10-14T09:30:47.567Z,16.08
2022-10-14T09:31:48.358Z,16.05
2022-10-14T09:32:48.447Z,16.00
2022-10-14T09:33:48.517Z,16.16
2022-10-14T09:34:48.258Z,16.36
2022-10-14T09:35:48.382Z,16.50
2022-10-14T09:36:48.354Z,16.74
2022-10-14T09:37:48.268Z,16.90
2022-10-14T09:38:48.545Z,17.39
2022-10-14T09:39:47.476Z,17.71
2022-10-14T09:40:48.337Z,17.53
2022-10-14T09:41:48.148Z,17.46
2022-10-14T09:42:48.337Z,17.49
2022-10-14T09:43:48.049Z,18.22
2022-10-14T09:44:48.297Z,17.82
2022-10-14T09:45:48.168Z,17.53
2022-10-14T09:46:48.273Z,17.59
2022-10-14T09:47:48.067Z,17.94
2022-10-14T09:48:48.237Z,18.16
2022-10-14T09:49:48.067Z,17.67
2022-10-14T09:50:48.206Z,17.04
2022-10-14T09:51:48.167Z,16.54
2022-10-14T09:52:48.086Z,16.39
2022-10-14T09:53:48.117Z,16.05
2022-10-14T09:54:47.930Z,15.90
2022-10-14T09:55:48.176Z,16.15
2022-10-14T09:56:47.952Z,16.01
2022-10-14T09:57:47.326Z,16.10
2022-10-14T09:58:47.967Z,16.20
2022-10-14T09:59:47.256Z,16.51
2022-10-14T10:00:47.907Z,16.75
2022-10-14T10:01:48.018Z,16.71
2022-10-14T10:02:47.919Z,17.20
2022-10-14T10:03:48.328Z,17.19
2022-10-14T10:04:48.092Z,17.30
2022-10-14T10:05:47.967Z,18.96
2022-10-14T10:06:47.927Z,18.75
2022-10-14T10:07:47.246Z,19.15
2022-10-14T10:08:47.907Z,18.35
2022-10-14T10:09:47.817Z,19.07
2022-10-14T10:10:47.978Z,19.84
2022-10-14T10:11:47.788Z,19.94
2022-10-14T10:12:47.986Z,20.89
2022-10-14T10:13:47.838Z,21.77
2022-10-14T10:14:47.876Z,22.22
2022-10-14T10:15:47.837Z,23.13
2022-10-14T10:16:48.105Z,23.95
2022-10-14T10:17:47.807Z,23.41
2022-10-14T10:18:47.864Z,23.28
2022-10-14T10:19:47.065Z,23.28
2022-10-14T10:20:47.867Z,22.41
2022-10-14T10:21:47.017Z,21.61
2022-10-14T10:22:48.529Z,22.04
2022-10-14T10:23:47.738Z,21.70
2022-10-14T10:24:47.626Z,20.84
2022-10-14T10:25:47.799Z,20.93
2022-10-14T10:26:47.716Z,20.90
2022-10-14T10:27:47.038Z,21.05
2022-10-14T10:28:47.660Z,21.32
2022-10-14T10:29:47.740Z,21.11
2022-10-14T10:30:47.668Z,20.52
2022-10-14T10:31:46.910Z,19.96
2022-10-14T10:32:48.698Z,19.46
2022-10-14T10:33:47.797Z,19.34
2022-10-14T10:34:47.569Z,18.90
2022-10-14T10:35:47.696Z,19.30
2022-10-14T10:36:47.641Z,20.00
2022-10-14T10:37:47.648Z,20.75
2022-10-14T10:38:47.597Z,20.41
2022-10-14T10:39:47.457Z,20.47
2022-10-14T10:40:47.679Z,20.03
2022-10-14T10:41:47.366Z,19.92
2022-10-14T10:42:47.706Z,19.33
2022-10-14T10:43:46.797Z,19.08
2022-10-14T10:44:47.703Z,18.88
2022-10-14T10:45:46.815Z,18.95
2022-10-14T10:46:48.014Z,18.83
2022-10-14T10:47:47.674Z,18.74
2022-10-14T10:48:47.558Z,18.62
2022-10-14T10:49:48.253Z,18.71
2022-10-14T10:50:46.733Z,18.80
2022-10-14T10:51:48.114Z,18.77
2022-10-14T10:52:48.563Z,18.86
2022-10-14T10:53:47.545Z,18.80
2022-10-14T10:54:46.725Z,18.92
2022-10-14T10:56:47.363Z,18.78
2022-10-14T10:57:47.584Z,18.60
2022-10-14T10:58:46.645Z,18.55
2022-10-14T10:59:48.063Z,18.46
2022-10-14T11:00:47.311Z,18.38
2022-10-14T11:01:47.587Z,18.34
2022-10-14T11:02:47.365Z,18.35
2022-10-14T11:03:46.654Z,18.33
2022-10-14T11:04:47.344Z,18.26
2022-10-14T11:05:47.432Z,18.12
2022-10-14T11:06:47.374Z,18.05
2022-10-14T11:07:47.166Z,18.01
2022-10-14T11:08:47.565Z,18.09
2022-10-14T11:09:47.873Z,18.04
2022-10-14T11:10:46.503Z,17.98
2022-10-14T11:11:47.203Z,17.95
2022-10-14T11:12:47.283Z,17.82
2022-10-14T11:13:47.404Z,17.80
2022-10-14T11:14:47.263Z,17.68
2022-10-14T11:15:47.196Z,17.71
2022-10-14T11:16:47.333Z,17.95
2022-10-14T11:17:47.183Z,17.95
2022-10-14T11:18:47.313Z,17.88
2022-10-14T11:19:47.274Z,17.80
2022-10-14T11:20:47.223Z,17.63
2022-10-14T11:21:46.423Z,17.82
2022-10-14T11:22:48.036Z,17.79
2022-10-14T11:23:47.242Z,17.83
2022-10-14T11:24:46.999Z,17.80
2022-10-14T11:25:47.173Z,17.93
2022-10-14T11:26:46.344Z,18.05
2022-10-14T11:27:47.177Z,18.09
2022-10-14T11:28:46.328Z,18.18
2022-10-14T11:29:47.197Z,18.31
2022-10-14T11:30:46.948Z,18.31
2022-10-14T11:31:47.159Z,18.28
2022-10-14T11:32:46.947Z,18.23
2022-10-14T11:33:47.077Z,18.23
2022-10-14T11:34:46.356Z,18.07
2022-10-14T11:35:47.026Z,18.12
2022-10-14T11:36:46.226Z,18.15
2022-10-14T11:37:46.825Z,18.13
2022-10-14T11:38:46.206Z,18.04
2022-10-14T11:39:47.486Z,18.05
2022-10-14T11:40:46.964Z,18.03
2022-10-14T11:41:46.779Z,18.00
2022-10-14T11:42:46.987Z,18.01
2022-10-14T11:43:46.777Z,17.98
2022-10-14T11:44:47.007Z,17.86
2022-10-14T11:45:46.117Z,17.73
2022-10-14T11:46:47.598Z,17.65
2022-10-14T11:47:46.857Z,17.70
2022-10-14T11:48:46.888Z,17.70
2022-10-14T11:49:46.867Z,17.65
2022-10-14T11:50:46.882Z,17.54
2022-10-14T11:51:46.077Z,17.45
2022-10-14T11:52:47.106Z,17.48
2022-10-14T11:53:46.857Z,17.41
2022-10-14T11:54:46.057Z,17.41
2022-10-14T11:55:46.801Z,17.38
2022-10-14T11:56:45.997Z,17.44
2022-10-14T11:57:46.785Z,17.49
2022-10-14T11:58:46.637Z,17.56
2022-10-14T11:59:46.006Z,17.60
2022-10-14T12:00:47.789Z,17.57
2022-10-14T12:01:47.076Z,17.56
2022-10-14T12:02:46.647Z,17.75
2022-10-14T12:03:46.717Z,17.64
2022-10-14T12:04:46.748Z,17.53
2022-10-14T12:05:45.905Z,17.42
2022-10-14T12:06:46.687Z,17.42
2022-10-14T12:07:46.646Z,17.57
2022-10-14T12:08:46.997Z,17.63
2022-10-14T12:09:46.706Z,17.64
2022-10-14T12:10:45.835Z,17.53
2022-10-14T12:11:47.196Z,17.48
2022-10-14T12:12:46.788Z,17.33
2022-10-14T12:13:46.485Z,17.39
2022-10-14T12:14:46.007Z,17.53
2022-10-14T12:15:46.657Z,17.70
2022-10-14T12:16:46.609Z,17.79
2022-10-14T12:17:46.517Z,17.80
2022-10-14T12:18:46.568Z,17.76
2022-10-14T12:19:46.789Z,17.82
2022-10-14T12:20:46.528Z,17.80
2022-10-14T12:21:49.687Z,17.80
2022-10-14T12:22:46.288Z,17.76
2022-10-14T12:23:46.447Z,17.63
2022-10-14T12:24:46.318Z,17.82
2022-10-14T12:25:47.026Z,17.82
2022-10-14T12:26:45.667Z,17.78
2022-10-14T12:27:46.496Z,17.88
2022-10-14T12:28:45.679Z,17.85
2022-10-14T12:29:46.536Z,17.83
2022-10-14T12:30:45.627Z,17.83
2022-10-14T12:31:47.087Z,17.88
2022-10-14T12:32:46.346Z,17.86
2022-10-14T12:33:45.587Z,17.83
2022-10-14T12:34:46.335Z,17.88
2022-10-14T12:35:46.529Z,17.83
2022-10-14T12:36:45.556Z,17.82
2022-10-14T12:37:47.405Z,17.82
2022-10-14T12:38:46.376Z,17.70
2022-10-14T12:39:46.146Z,17.49
2022-10-14T12:40:46.337Z,17.49
2022-10-14T12:41:45.547Z,17.54
2022-10-14T12:42:46.346Z,17.46
2022-10-14T12:43:49.139Z,17.49
2022-10-14T12:44:46.297Z,17.56
2022-10-14T12:45:46.177Z,17.49
2022-10-14T12:46:45.458Z,17.60
2022-10-14T12:47:46.136Z,17.59
2022-10-14T12:48:46.299Z,17.64
2022-10-14T12:49:45.477Z,17.67
2022-10-14T12:50:47.036Z,17.63
2022-10-14T12:51:45.877Z,17.60
2022-10-14T12:52:46.015Z,17.59
2022-10-14T12:53:46.139Z,17.71